createdAt,value
2023-04-19T00:00:09.988Z,100997.75
2023-04-19T00:03:00.594Z,100995.44
2023-04-19T00:05:35.504Z,100995.70
2023-04-19T00:08:09.102Z,100992.96
2023-04-19T00:10:49.801Z,100980.89
2023-04-19T00:13:19.394Z,100985.70
2023-04-19T00:15:54.546Z,100982.64
2023-04-19T00:18:23.576Z,100977.34
2023-04-19T00:20:54.899Z,100978.46
2023-04-19T00:23:26.789Z,100979.63
2023-04-19T00:26:03.928Z,100977.44
2023-04-19T00:28:34.645Z,100975.44
2023-04-19T00:31:06.708Z,100974.14
2023-04-19T00:33:53.742Z,100964.15
2023-04-19T00:36:40.715Z,100961.42
2023-04-19T00:39:09.435Z,100966.32
2023-04-19T00:41:42.864Z,100958.64
2023-04-19T00:44:23.886Z,100958.69
2023-04-19T00:47:00.684Z,100957.27
2023-04-19T00:49:32.626Z,100958.34
2023-04-19T00:52:01.396Z,100954.36
2023-04-19T00:54:31.078Z,100950.60
2023-04-19T00:57:00.992Z,100941.02
2023-04-19T00:59:31.586Z,100947.23
2023-04-19T01:02:01.140Z,100940.23
2023-04-19T01:04:31.967Z,100936.33
2023-04-19T01:07:03.099Z,100932.41
2023-04-19T01:09:32.511Z,100931.83
2023-04-19T01:12:03.252Z,100933.30
2023-04-19T01:14:32.537Z,100929.48
2023-04-19T01:17:03.611Z,100925.44
2023-04-19T01:19:36.738Z,100924.83
2023-04-19T01:22:06.394Z,100923.22
2023-04-19T01:24:35.906Z,100918.79
2023-04-19T01:27:06.045Z,100915.39
2023-04-19T01:29:40.623Z,100911.10
2023-04-19T01:32:12.190Z,100907.64
2023-04-19T01:34:42.677Z,100909.44
2023-04-19T01:37:13.972Z,100910.50
2023-04-19T01:39:43.659Z,100910.64
2023-04-19T01:42:12.486Z,100905.73
2023-04-19T01:44:43.568Z,100906.52
2023-04-19T01:47:16.235Z,100906.20
2023-04-19T01:49:45.810Z,100902.59
2023-04-19T01:52:17.117Z,100896.87
2023-04-19T01:54:55.952Z,100893.64
2023-04-19T01:57:25.058Z,100890.55
2023-04-19T01:59:54.242Z,100889.96
2023-04-19T02:02:25.850Z,100891.60
2023-04-19T02:04:59.132Z,100887.81
2023-04-19T02:07:34.490Z,100888.23
2023-04-19T02:10:08.822Z,100887.98
2023-04-19T02:12:37.964Z,100891.94
2023-04-19T02:15:08.001Z,100889.89
2023-04-19T02:17:39.543Z,100893.19
2023-04-19T02:20:09.143Z,100892.25
2023-04-19T02:22:38.000Z,100889.40
2023-04-19T02:25:10.260Z,100888.63
2023-04-19T02:27:39.158Z,100886.84
2023-04-19T02:30:09.469Z,100885.70
2023-04-19T02:32:38.567Z,100881.04
2023-04-19T02:35:08.676Z,100881.02
2023-04-19T02:37:37.681Z,100877.06
2023-04-19T02:40:10.509Z,100873.95
2023-04-19T02:42:39.185Z,100868.47
2023-04-19T02:45:11.594Z,100864.52
2023-04-19T02:47:40.544Z,100858.45
2023-04-19T02:50:10.108Z,100859.90
2023-04-19T02:52:43.916Z,100860.45
2023-04-19T02:55:15.990Z,100860.79
2023-04-19T02:57:46.168Z,100867.34
2023-04-19T03:00:15.701Z,100864.42
2023-04-19T03:02:50.441Z,100868.26
2023-04-19T03:05:19.583Z,100863.20
2023-04-19T03:07:48.971Z,100864.20
2023-04-19T03:10:20.941Z,100857.43
2023-04-19T03:12:49.801Z,100855.96
2023-04-19T03:15:20.541Z,100856.23
2023-04-19T03:17:50.182Z,100851.69
2023-04-19T03:20:20.491Z,100853.34
2023-04-19T03:22:49.641Z,100853.63
2023-04-19T03:25:19.388Z,100854.91
2023-04-19T03:27:53.703Z,100854.11
2023-04-19T03:30:33.109Z,100851.40
2023-04-19T03:33:06.376Z,100850.02
2023-04-19T03:35:36.916Z,100846.21
2023-04-19T03:38:14.002Z,100841.54
2023-04-19T03:40:43.528Z,100844.13
2023-04-19T03:43:15.488Z,100842.71
2023-04-19T03:45:56.789Z,100837.66
2023-04-19T03:48:31.546Z,100836.61
2023-04-19T03:51:02.185Z,100832.42
2023-04-19T03:53:31.672Z,100826.89
2023-04-19T03:56:07.397Z,100822.38
2023-04-19T03:58:43.434Z,100824.11
2023-04-19T04:01:26.486Z,100821.16
2023-04-19T04:04:09.488Z,100814.79
2023-04-19T04:07:04.354Z,100812.22
2023-04-19T04:12:29.344Z,100806.02
2023-04-19T04:15:01.690Z,100802.56
2023-04-19T04:17:34.630Z,100800.60
2023-04-19T04:20:05.376Z,100798.53
2023-04-19T04:22:40.004Z,100794.89
2023-04-19T04:25:15.498Z,100790.75
2023-04-19T04:27:45.352Z,100788.34
2023-04-19T04:30:18.250Z,100788.88
2023-04-19T04:32:47.446Z,100793.70
2023-04-19T04:35:17.215Z,100793.36
2023-04-19T04:37:57.812Z,100799.38
2023-04-19T04:40:30.723Z,100799.86
2023-04-19T04:43:04.807Z,100798.15
2023-04-19T04:45:37.557Z,100798.17
2023-04-19T04:48:09.021Z,100801.64
2023-04-19T04:50:46.670Z,100798.73
2023-04-19T04:53:15.737Z,100801.64
2023-04-19T04:55:51.412Z,100807.30
2023-04-19T04:58:25.466Z,100803.52
2023-04-19T05:01:09.711Z,100805.73
2023-04-19T05:03:42.595Z,100800.34
2023-04-19T05:06:15.081Z,100804.27
2023-04-19T05:08:48.690Z,100800.79
2023-04-19T05:11:44.402Z,100799.63
2023-04-19T05:14:15.805Z,100798.39
2023-04-19T05:16:47.853Z,100793.05
2023-04-19T05:19:20.207Z,100794.73
2023-04-19T05:21:54.680Z,100790.40
2023-04-19T05:24:27.564Z,100787.11
2023-04-19T05:27:03.572Z,100788.10
2023-04-19T05:29:37.419Z,100786.48
2023-04-19T05:32:11.287Z,100780.86
2023-04-19T05:34:48.018Z,100782.58
2023-04-19T05:37:24.411Z,100781.56
2023-04-19T05:39:57.943Z,100780.92
2023-04-19T05:42:40.463Z,100782.21
2023-04-19T05:45:45.646Z,100777.95
2023-04-19T05:48:20.306Z,100776.79
2023-04-19T05:51:22.117Z,100779.48
2023-04-19T05:54:12.321Z,100773.55
2023-04-19T05:56:49.412Z,100773.15
2023-04-19T05:59:26.607Z,100771.22
2023-04-19T06:02:07.709Z,100765.66
2023-04-19T06:04:40.737Z,100767.92
2023-04-19T06:07:33.935Z,100767.59
2023-04-19T06:10:15.717Z,100769.14
2023-04-19T06:12:46.796Z,100764.77
2023-04-19T06:15:24.164Z,100767.49
2023-04-19T06:18:05.300Z,100767.13
2023-04-19T06:20:43.261Z,100768.52
2023-04-19T06:23:23.347Z,100767.95
2023-04-19T06:25:55.964Z,100767.17
2023-04-19T06:28:29.354Z,100761.49
2023-04-19T06:31:04.782Z,100764.23
2023-04-19T06:33:34.990Z,100763.56
2023-04-19T06:36:07.191Z,100758.92
2023-04-19T06:38:44.295Z,100763.20
2023-04-19T06:41:22.960Z,100767.70
2023-04-19T06:43:55.513Z,100768.77
2023-04-19T06:46:24.649Z,100770.88
2023-04-19T06:48:58.641Z,100768.88
2023-04-19T06:51:27.698Z,100768.02
2023-04-19T06:54:00.152Z,100762.31
2023-04-19T06:56:45.321Z,100763.01
2023-04-19T06:59:19.309Z,100762.69
2023-04-19T07:01:57.935Z,100759.23
2023-04-19T07:04:34.587Z,100756.15
2023-04-19T07:07:05.530Z,100756.81
2023-04-19T07:09:36.336Z,100754.89
2023-04-19T07:12:12.526Z,100754.39
2023-04-19T07:14:44.506Z,100749.05
2023-04-19T07:17:18.372Z,100747.70
2023-04-19T07:19:52.481Z,100743.50
2023-04-19T07:22:35.470Z,100743.33
2023-04-19T07:25:05.488Z,100744.60
2023-04-19T07:27:37.636Z,100741.45
2023-04-19T07:30:07.554Z,100742.73
2023-04-19T07:32:42.061Z,100744.28
2023-04-19T07:35:28.240Z,100744.74
2023-04-19T07:38:04.110Z,100742.59
2023-04-19T07:40:38.367Z,100740.13
2023-04-19T07:43:17.069Z,100739.63
2023-04-19T07:45:55.527Z,100735.10
2023-04-19T07:48:38.378Z,100736.29
2023-04-19T07:51:13.780Z,100737.73
2023-04-19T07:53:46.614Z,100730.41
2023-04-19T07:56:28.970Z,100729.13
2023-04-19T07:59:07.814Z,100728.15
2023-04-19T08:01:45.577Z,100728.46
2023-04-19T08:04:22.923Z,100727.16
2023-04-19T08:07:07.500Z,100719.85
2023-04-19T08:09:55.988Z,100725.45
2023-04-19T08:12:38.320Z,100728.27
2023-04-19T08:15:36.140Z,100730.48
2023-04-19T08:17:59.006Z,100725.08
2023-04-19T08:20:42.241Z,100723.73
2023-04-19T08:23:24.531Z,100718.36
2023-04-19T08:26:00.203Z,100715.38
2023-04-19T08:28:36.054Z,100711.92
2023-04-19T08:31:11.094Z,100712.31
2023-04-19T08:33:45.723Z,100709.08
2023-04-19T08:36:32.410Z,100711.09
2023-04-19T08:39:29.123Z,100709.86
2023-04-19T08:42:24.553Z,100708.89
2023-04-19T08:45:27.121Z,100706.30
2023-04-19T08:48:03.110Z,100698.25
2023-04-19T08:50:48.419Z,100697.90
2023-04-19T08:53:25.459Z,100698.58
2023-04-19T08:59:04.061Z,100702.80
2023-04-19T09:01:54.088Z,100702.61
2023-04-19T09:04:36.489Z,100697.35
2023-04-19T09:07:10.596Z,100702.15
2023-04-19T09:10:13.647Z,100699.02
2023-04-19T09:13:04.926Z,100700.41
2023-04-19T09:15:40.895Z,100701.29
2023-04-19T09:18:15.660Z,100697.36
2023-04-19T09:20:48.403Z,100701.11
2023-04-19T09:23:37.362Z,100698.75
2023-04-19T09:26:23.257Z,100698.50
2023-04-19T09:29:06.459Z,100703.60
2023-04-19T09:31:51.442Z,100698.38
2023-04-19T09:34:23.826Z,100697.81
2023-04-19T09:37:17.725Z,100702.02
2023-04-19T09:40:32.066Z,100696.48
2023-04-19T09:45:51.378Z,100696.11
2023-04-19T09:48:27.424Z,100687.45
2023-04-19T09:51:05.812Z,100692.61
2023-04-19T09:53:46.111Z,100689.30
2023-04-19T09:56:26.854Z,100694.60
2023-04-19T09:59:21.457Z,100694.85
2023-04-19T10:01:57.821Z,100693.39
2023-04-19T10:04:44.022Z,100691.39
2023-04-19T10:08:02.133Z,100690.06
2023-04-19T10:10:41.890Z,100687.83
2023-04-19T10:13:26.670Z,100687.12
2023-04-19T10:16:01.782Z,100696.51
2023-04-19T10:19:11.092Z,100700.08
2023-04-19T10:21:47.116Z,100702.73
2023-04-19T10:24:21.129Z,100703.41
2023-04-19T10:27:15.210Z,100700.92
2023-04-19T10:30:28.758Z,100701.17
2023-04-19T10:33:42.066Z,100704.98
2023-04-19T10:36:20.354Z,100701.25
2023-04-19T10:38:56.620Z,100704.44
2023-04-19T10:41:59.082Z,100701.54
2023-04-19T10:44:32.016Z,100701.17
2023-04-19T10:52:12.857Z,100701.06
2023-04-19T10:55:19.127Z,100701.63
2023-04-19T10:58:14.257Z,100696.45
2023-04-19T11:05:11.153Z,100696.39
2023-04-19T11:07:57.344Z,100691.77
2023-04-19T11:11:30.163Z,100691.18
2023-04-19T11:14:12.019Z,100693.23
2023-04-19T11:17:08.005Z,100688.80
2023-04-19T11:23:01.439Z,100684.59
2023-04-19T11:25:38.507Z,100681.14
2023-04-19T11:28:33.145Z,100681.39
2023-04-19T11:31:04.249Z,100686.14
2023-04-19T11:33:36.944Z,100681.81
2023-04-19T11:36:58.279Z,100676.73
2023-04-19T11:39:50.212Z,100679.19
2023-04-19T11:42:32.878Z,100676.45
2023-04-19T11:45:31.254Z,100677.86
2023-04-19T11:48:16.839Z,100675.80
2023-04-19T11:50:49.046Z,100678.14
2023-04-19T11:53:46.201Z,100680.00
2023-04-19T11:56:19.138Z,100673.54
2023-04-19T11:58:53.080Z,100680.17
2023-04-19T12:01:25.059Z,100683.86
2023-04-19T12:03:57.288Z,100677.02
2023-04-19T12:06:31.555Z,100683.30
2023-04-19T12:09:03.688Z,100684.29
2023-04-19T12:11:50.790Z,100689.63
2023-04-19T12:14:31.245Z,100690.48
2023-04-19T12:17:09.817Z,100688.63
2023-04-19T12:19:54.000Z,100687.43
2023-04-19T12:22:29.528Z,100688.98
2023-04-19T12:24:59.007Z,100689.36
2023-04-19T12:27:28.151Z,100691.52
2023-04-19T12:30:04.336Z,100680.96
2023-04-19T12:32:38.216Z,100689.23
2023-04-19T12:35:22.307Z,100695.34
2023-04-19T12:38:01.921Z,100696.06
2023-04-19T12:40:38.839Z,100690.41
2023-04-19T12:43:10.970Z,100694.45
2023-04-19T12:45:45.339Z,100695.25
2023-04-19T12:48:25.335Z,100693.41
2023-04-19T12:51:01.092Z,100696.70
2023-04-19T12:53:37.622Z,100694.21
2023-04-19T12:56:18.762Z,100687.40
2023-04-19T12:58:53.926Z,100686.88
2023-04-19T13:01:29.963Z,100687.24
2023-04-19T13:04:28.608Z,100679.56
2023-04-19T13:07:10.154Z,100680.33
2023-04-19T13:09:46.303Z,100680.73
2023-04-19T13:12:34.054Z,100677.95
2023-04-19T13:15:12.261Z,100681.58
2023-04-19T13:17:46.917Z,100672.83
2023-04-19T13:20:29.031Z,100676.55
2023-04-19T13:23:08.370Z,100678.73
2023-04-19T13:25:40.784Z,100681.20
2023-04-19T13:28:21.312Z,100686.49
2023-04-19T13:30:56.758Z,100684.70
2023-04-19T13:33:40.596Z,100680.23
2023-04-19T13:36:30.391Z,100686.86
2023-04-19T13:39:12.290Z,100687.31
2023-04-19T13:43:01.020Z,100691.02
2023-04-19T13:45:48.180Z,100692.85
2023-04-19T13:48:31.848Z,100699.00
2023-04-19T13:51:42.767Z,100697.63
2023-04-19T13:54:22.986Z,100694.36
2023-04-19T13:57:29.512Z,100690.24
2023-04-19T14:00:37.854Z,100687.80
2023-04-19T14:03:29.368Z,100688.20
2023-04-19T14:06:01.627Z,100688.29
2023-04-19T14:08:41.059Z,100691.48
2023-04-19T14:11:26.759Z,100690.80
2023-04-19T14:14:31.620Z,100687.98
2023-04-19T14:17:19.764Z,100688.78
2023-04-19T14:20:15.718Z,100687.27
2023-04-19T14:23:07.844Z,100685.29
2023-04-19T14:26:28.819Z,100682.83
2023-04-19T14:29:31.206Z,100672.79
2023-04-19T14:32:26.530Z,100676.40
2023-04-19T14:35:24.074Z,100676.92
2023-04-19T14:38:01.510Z,100680.59
2023-04-19T14:40:58.715Z,100687.56
2023-04-19T14:44:59.620Z,100686.16
2023-04-19T14:48:10.408Z,100684.61
2023-04-19T14:51:07.709Z,100683.92
2023-04-19T14:54:10.465Z,100687.66
2023-04-19T14:57:16.515Z,100688.60
2023-04-19T15:00:12.972Z,100685.60
2023-04-19T15:07:32.364Z,100689.42
2023-04-19T15:10:38.221Z,100694.05
2023-04-19T15:16:40.465Z,100698.71
2023-04-19T15:19:40.927Z,100699.66
2023-04-19T15:22:39.604Z,100694.55
2023-04-19T15:29:49.664Z,100693.55
2023-04-19T15:32:36.353Z,100689.88
2023-04-19T15:36:20.546Z,100687.27
2023-04-19T15:39:27.275Z,100686.64
2023-04-19T15:43:22.466Z,100684.67
2023-04-19T15:46:40.277Z,100681.83
2023-04-19T15:53:19.577Z,100687.08
2023-04-19T16:00:11.890Z,100707.70
2023-04-19T16:03:02.469Z,100705.70
2023-04-19T16:09:24.456Z,100707.42
2023-04-19T16:12:24.421Z,100700.16
2023-04-19T16:15:15.856Z,100704.56
2023-04-19T16:17:57.275Z,100708.17
2023-04-19T16:21:16.443Z,100709.27
2023-04-19T16:28:37.616Z,100700.19
2023-04-19T16:31:44.454Z,100707.19
2023-04-19T16:34:43.013Z,100712.06
2023-04-19T16:37:33.333Z,100717.88
2023-04-19T16:48:45.187Z,100721.50
2023-04-19T16:52:14.155Z,100722.25
2023-04-19T16:55:58.380Z,100720.73
2023-04-19T16:59:17.669Z,100718.39
2023-04-19T17:02:09.730Z,100725.90
2023-04-19T17:04:55.538Z,100730.73
2023-04-19T17:08:03.720Z,100741.97
2023-04-19T17:10:57.667Z,100743.02
2023-04-19T17:13:56.651Z,100741.10
2023-04-19T17:16:55.814Z,100739.52
2023-04-19T17:19:57.431Z,100739.17
2023-04-19T17:22:40.658Z,100738.04
2023-04-19T17:25:17.366Z,100749.10
2023-04-19T17:27:55.525Z,100746.83
2023-04-19T17:30:47.354Z,100747.81
2023-04-19T17:34:17.879Z,100749.96
2023-04-19T17:37:46.286Z,100751.66
2023-04-19T17:44:56.506Z,100755.38
2023-04-19T17:48:47.168Z,100758.27
2023-04-19T17:55:56.382Z,100762.19
2023-04-19T17:59:05.990Z,100766.07
2023-04-19T18:01:45.063Z,100767.83
2023-04-19T18:04:23.594Z,100765.38
2023-04-19T18:07:45.809Z,100762.82
2023-04-19T18:10:48.084Z,100772.81
2023-04-19T18:13:30.870Z,100783.24
2023-04-19T18:16:19.019Z,100777.09
2023-04-19T18:19:27.125Z,100781.56
2023-04-19T18:21:58.814Z,100787.13
2023-04-19T18:24:33.674Z,100791.20
2023-04-19T18:27:10.049Z,100799.16
2023-04-19T18:29:56.765Z,100798.52
2023-04-19T18:32:48.201Z,100797.91
2023-04-19T18:35:29.216Z,100801.55
2023-04-19T18:38:06.166Z,100799.66
2023-04-19T18:40:56.951Z,100801.13
2023-04-19T18:44:24.826Z,100804.26
2023-04-19T18:47:24.138Z,100803.80
2023-04-19T18:50:12.229Z,100804.20
2023-04-19T18:53:14.791Z,100808.56
2023-04-19T18:56:03.667Z,100811.14
2023-04-19T18:58:36.101Z,100813.91
2023-04-19T19:01:15.392Z,100813.35
2023-04-19T19:04:23.543Z,100813.77
2023-04-19T19:07:33.379Z,100808.03
2023-04-19T19:10:18.511Z,100799.23
2023-04-19T19:12:55.773Z,100799.16
2023-04-19T19:15:47.636Z,100793.24
2023-04-19T19:18:16.490Z,100806.44
2023-04-19T19:20:52.789Z,100807.38
2023-04-19T19:23:35.517Z,100805.27
2023-04-19T19:26:18.702Z,100801.77
2023-04-19T19:29:16.065Z,100802.34
2023-04-19T19:31:55.039Z,100799.83
2023-04-19T19:34:30.631Z,100806.48
2023-04-19T19:37:02.340Z,100808.50
2023-04-19T19:39:38.206Z,100808.98
2023-04-19T19:42:35.337Z,100816.63
2023-04-19T19:45:20.539Z,100823.41
2023-04-19T19:48:01.443Z,100824.14
2023-04-19T19:51:11.990Z,100823.46
2023-04-19T19:53:32.583Z,100825.41
2023-04-19T19:56:10.830Z,100826.24
2023-04-19T19:58:51.702Z,100828.83
2023-04-19T20:01:31.887Z,100828.80
2023-04-19T20:04:03.963Z,100826.48
2023-04-19T20:09:36.359Z,100821.19
2023-04-19T20:12:14.036Z,100817.41
2023-04-19T20:15:05.303Z,100819.80
2023-04-19T20:17:48.921Z,100817.75
2023-04-19T20:20:34.152Z,100812.43
2023-04-19T20:23:17.687Z,100819.27
2023-04-19T20:26:02.840Z,100820.39
2023-04-19T20:29:07.442Z,100826.27
2023-04-19T20:31:53.205Z,100824.54
2023-04-19T20:34:45.151Z,100822.77
2023-04-19T20:37:18.191Z,100826.54
2023-04-19T20:39:56.499Z,100816.64
2023-04-19T20:42:33.412Z,100821.08
2023-04-19T20:45:38.909Z,100823.11
2023-04-19T20:48:16.188Z,100826.48
2023-04-19T20:53:51.279Z,100824.39
2023-04-19T20:56:33.721Z,100818.04
2023-04-19T20:59:08.756Z,100819.45
2023-04-19T21:01:55.333Z,100821.41
2023-04-19T21:04:34.529Z,100822.32
2023-04-19T21:07:06.651Z,100823.38
2023-04-19T21:09:44.854Z,100820.50
2023-04-19T21:12:19.573Z,100819.18
2023-04-19T21:14:52.454Z,100825.47
2023-04-19T21:17:24.756Z,100822.05
2023-04-19T21:19:54.086Z,100824.80
2023-04-19T21:22:23.157Z,100824.45
2023-04-19T21:24:54.504Z,100823.42
2023-04-19T21:27:30.039Z,100818.41
2023-04-19T21:30:07.167Z,100815.35
2023-04-19T21:32:41.052Z,100814.52
2023-04-19T21:35:14.235Z,100815.86
2023-04-19T21:37:45.677Z,100811.77
2023-04-19T21:40:28.574Z,100815.94
2023-04-19T21:43:16.056Z,100820.19
2023-04-19T21:45:48.514Z,100822.79
2023-04-19T21:48:30.267Z,100819.59
2023-04-19T21:51:01.423Z,100818.92
2023-04-19T21:53:33.818Z,100818.88
2023-04-19T21:56:02.899Z,100818.63
2023-04-19T21:58:37.092Z,100817.52
2023-04-19T22:01:11.282Z,100815.98
2023-04-19T22:03:42.639Z,100818.39
2023-04-19T22:06:24.266Z,100823.70
2023-04-19T22:09:05.329Z,100821.77
2023-04-19T22:11:42.344Z,100820.34
2023-04-19T22:14:14.097Z,100816.95
2023-04-19T22:16:49.314Z,100816.25
2023-04-19T22:19:24.089Z,100815.67
2023-04-19T22:22:07.631Z,100814.06
2023-04-19T23:13:10.002Z,100816.99
